createdAt,value
2023-04-05T00:01:13.730Z,3.50
2023-04-05T00:03:17.922Z,3.50
2023-04-05T00:05:29.824Z,3.53
2023-04-05T00:07:34.235Z,3.77
2023-04-05T00:09:37.433Z,4.20
2023-04-05T00:11:40.356Z,3.80
2023-04-05T00:13:43.167Z,3.50
2023-04-05T00:15:47.286Z,3.40
2023-04-05T00:17:50.601Z,3.90
2023-04-05T00:19:57.266Z,4.53
2023-04-05T00:22:00.254Z,3.83
2023-04-05T00:24:03.488Z,3.60
2023-04-05T00:26:06.408Z,4.60
2023-04-05T00:28:09.361Z,4.90
2023-04-05T00:30:12.834Z,4.93
2023-04-05T00:32:17.030Z,3.90
2023-04-05T00:34:19.910Z,5.30
2023-04-05T00:36:22.756Z,3.77
2023-04-05T00:38:25.612Z,3.87
2023-04-05T00:40:28.384Z,5.37
2023-04-05T00:42:31.195Z,5.30
2023-04-05T00:44:34.870Z,3.10
2023-04-05T00:46:37.633Z,4.23
2023-04-05T00:48:41.886Z,4.50
2023-04-05T00:50:44.655Z,4.80
2023-04-05T00:52:47.905Z,4.90
2023-04-05T00:54:51.089Z,4.80
2023-04-05T00:56:54.015Z,4.67
2023-04-05T00:58:56.863Z,4.67
2023-04-05T01:01:05.414Z,5.33
2023-04-05T01:03:08.545Z,4.60
2023-04-05T01:05:22.877Z,5.30
2023-04-05T01:07:29.951Z,5.20
2023-04-05T01:09:43.688Z,6.03
2023-04-05T01:11:46.497Z,5.97
2023-04-05T01:13:49.377Z,6.30
2023-04-05T01:15:52.183Z,6.47
2023-04-05T01:17:57.672Z,6.53
2023-04-05T01:20:01.218Z,5.93
2023-04-05T01:22:18.030Z,6.73
2023-04-05T01:24:25.712Z,6.13
2023-04-05T01:26:54.818Z,5.77
2023-04-05T01:29:07.662Z,5.67
2023-04-05T01:31:15.019Z,5.60
2023-04-05T01:33:20.516Z,5.20
2023-04-05T01:35:25.397Z,5.03
2023-04-05T01:37:28.630Z,6.10
2023-04-05T01:39:31.555Z,5.97
2023-04-05T01:41:34.349Z,5.73
2023-04-05T01:43:37.154Z,5.30
2023-04-05T01:45:39.915Z,5.73
2023-04-05T01:47:44.070Z,5.40
2023-04-05T01:49:46.861Z,6.30
2023-04-05T01:51:49.625Z,5.60
2023-04-05T01:53:52.432Z,5.63
2023-04-05T01:55:55.518Z,6.27
2023-04-05T01:57:58.813Z,5.63
2023-04-05T02:00:01.828Z,5.00
2023-04-05T02:02:04.758Z,5.47
2023-04-05T02:04:09.063Z,6.20
2023-04-05T02:06:11.925Z,4.80
2023-04-05T02:08:14.775Z,5.10
2023-04-05T02:10:18.457Z,5.50
2023-04-05T02:12:21.228Z,4.90
2023-04-05T02:14:25.037Z,4.40
2023-04-05T02:16:28.094Z,4.90
2023-04-05T02:18:31.519Z,5.20
2023-04-05T02:20:35.698Z,4.30
2023-04-05T02:22:40.040Z,4.40
2023-04-05T02:24:42.939Z,4.73
2023-04-05T02:26:45.944Z,5.10
2023-04-05T02:28:48.739Z,5.30
2023-04-05T02:30:51.496Z,5.00
2023-04-05T02:32:54.294Z,5.27
2023-04-05T02:34:58.297Z,4.87
2023-04-05T02:37:02.863Z,5.63
2023-04-05T02:39:05.765Z,5.63
2023-04-05T02:41:09.987Z,5.90
2023-04-05T02:43:12.768Z,5.53
2023-04-05T02:45:15.622Z,5.40
2023-04-05T02:47:21.559Z,4.80
2023-04-05T02:49:24.491Z,5.40
2023-04-05T02:51:27.986Z,6.60
2023-04-05T02:53:32.095Z,5.47
2023-04-05T02:55:34.879Z,5.37
2023-04-05T02:57:37.676Z,5.03
2023-04-05T02:59:40.773Z,6.47
2023-04-05T03:01:44.349Z,6.00
2023-04-05T03:03:47.469Z,6.00
2023-04-05T03:05:50.359Z,5.13
2023-04-05T03:07:53.256Z,5.60
2023-04-05T03:09:58.187Z,6.20
2023-04-05T03:12:03.511Z,5.97
2023-04-05T03:14:06.295Z,5.23
2023-04-05T03:16:09.168Z,5.87
2023-04-05T03:18:11.971Z,6.00
2023-04-05T03:20:14.771Z,5.87
2023-04-05T03:22:17.556Z,6.37
2023-04-05T03:24:20.684Z,5.93
2023-04-05T03:26:25.090Z,6.13
2023-04-05T03:28:27.905Z,6.07
2023-04-05T03:30:30.763Z,6.20
2023-04-05T03:32:33.573Z,5.50
2023-04-05T03:34:36.369Z,6.40
2023-04-05T03:36:42.913Z,6.37
2023-04-05T03:38:46.458Z,6.23
2023-04-05T03:40:49.380Z,6.27
2023-04-05T03:42:53.539Z,5.97
2023-04-05T03:44:56.330Z,7.60
2023-04-05T03:46:59.251Z,6.90
2023-04-05T03:49:02.399Z,6.30
2023-04-05T03:51:06.167Z,5.43
2023-04-05T03:53:08.948Z,5.10
2023-04-05T03:55:13.451Z,6.20
2023-04-05T03:57:16.520Z,6.40
2023-04-05T03:59:20.694Z,5.30
2023-04-05T04:01:23.633Z,5.50
2023-04-05T04:03:28.799Z,6.33
2023-04-05T04:05:31.631Z,6.33
2023-04-05T04:07:34.400Z,5.30
2023-04-05T04:09:37.206Z,5.27
2023-04-05T04:11:39.967Z,5.50
2023-04-05T04:13:42.773Z,5.90
2023-04-05T04:15:47.035Z,5.80
2023-04-05T04:17:49.806Z,5.67
2023-04-05T04:19:52.616Z,5.63
2023-04-05T04:21:56.025Z,5.40
2023-04-05T04:24:00.918Z,5.63
2023-04-05T04:26:04.250Z,5.63
2023-04-05T04:28:07.903Z,5.60
2023-04-05T04:30:11.642Z,5.00
2023-04-05T04:32:16.421Z,6.00
2023-04-05T04:34:21.222Z,5.77
2023-04-05T04:36:34.585Z,5.90
2023-04-05T04:38:37.379Z,5.43
2023-04-05T04:40:40.473Z,5.33
2023-04-05T04:42:44.344Z,6.20
2023-04-05T04:44:47.164Z,5.67
2023-04-05T04:46:54.744Z,6.23
2023-04-05T04:48:59.022Z,5.83
2023-04-05T04:51:03.545Z,6.10
2023-04-05T04:53:06.678Z,6.13
2023-04-05T04:55:10.241Z,5.83
2023-04-05T04:57:13.024Z,5.93
2023-04-05T04:59:16.220Z,7.10
2023-04-05T05:01:19.110Z,6.40
2023-04-05T05:03:22.781Z,6.50
2023-04-05T05:05:27.514Z,6.73
2023-04-05T05:07:30.543Z,6.40
2023-04-05T05:09:33.702Z,6.63
2023-04-05T05:11:36.611Z,5.70
2023-04-05T05:13:39.376Z,6.60
2023-04-05T05:15:42.612Z,6.50
2023-04-05T05:17:45.887Z,6.40
2023-04-05T05:19:48.713Z,5.60
2023-04-05T05:21:53.888Z,6.17
2023-04-05T05:23:56.915Z,6.20
2023-04-05T05:26:00.331Z,6.00
2023-04-05T05:28:03.482Z,7.30
2023-04-05T05:30:07.279Z,6.43
2023-04-05T05:32:14.296Z,6.70
2023-04-05T05:34:17.356Z,6.93
2023-04-05T05:36:20.589Z,7.43
2023-04-05T05:38:24.721Z,6.23
2023-04-05T05:40:27.832Z,5.50
2023-04-05T05:42:32.461Z,6.30
2023-04-05T05:44:35.952Z,7.23
2023-04-05T05:46:39.226Z,6.30
2023-04-05T05:48:42.130Z,6.60
2023-04-05T05:50:48.712Z,5.30
2023-04-05T05:52:51.603Z,6.13
2023-04-05T05:54:55.799Z,6.40
2023-04-05T05:56:59.003Z,6.70
2023-04-05T05:59:01.911Z,6.27
2023-04-05T06:01:07.601Z,6.30
2023-04-05T06:03:10.809Z,6.87
2023-04-05T06:05:14.207Z,6.40
2023-04-05T06:07:16.999Z,6.63
2023-04-05T06:09:19.764Z,7.40
2023-04-05T06:11:25.239Z,6.80
2023-04-05T06:13:28.018Z,6.03
2023-04-05T06:15:32.586Z,6.40
2023-04-05T06:17:41.722Z,6.50
2023-04-05T06:19:44.567Z,6.30
2023-04-05T06:21:47.340Z,7.40
2023-04-05T06:23:50.101Z,8.30
2023-04-05T06:25:52.882Z,8.10
2023-04-05T06:27:57.013Z,8.53
2023-04-05T06:30:00.792Z,8.67
2023-04-05T06:32:03.623Z,7.90
2023-04-05T06:34:06.753Z,8.60
2023-04-05T06:36:09.900Z,9.90
2023-04-05T06:38:12.698Z,9.90
2023-04-05T06:40:15.692Z,8.20
2023-04-05T06:42:18.473Z,9.20
2023-04-05T06:44:22.759Z,9.00
2023-04-05T06:46:26.565Z,8.87
2023-04-05T06:48:29.817Z,9.50
2023-04-05T06:50:32.595Z,8.30
2023-04-05T06:52:35.731Z,7.70
2023-04-05T06:54:38.677Z,8.00
2023-04-05T06:56:41.982Z,9.03
2023-04-05T06:58:44.926Z,8.20
2023-04-05T07:00:49.031Z,7.37
2023-04-05T07:02:51.853Z,8.30
2023-04-05T07:05:00.607Z,9.70
2023-04-05T07:07:03.633Z,9.00
2023-04-05T07:09:06.419Z,8.37
2023-04-05T07:11:09.355Z,6.97
2023-04-05T07:13:12.114Z,7.50
2023-04-05T07:15:15.062Z,7.07
2023-04-05T07:17:19.166Z,7.13
2023-04-05T07:19:22.132Z,6.30
2023-04-05T07:21:24.982Z,9.37
2023-04-05T07:23:27.874Z,7.27
2023-04-05T07:25:31.418Z,7.00
2023-04-05T07:27:35.051Z,6.40
2023-04-05T07:29:40.675Z,7.03
2023-04-05T07:31:43.711Z,6.40
2023-04-05T07:33:48.194Z,6.47
2023-04-05T07:35:53.358Z,6.40
2023-04-05T07:37:56.763Z,5.30
2023-04-05T07:39:59.604Z,5.57
2023-04-05T07:42:02.450Z,5.50
2023-04-05T07:44:05.234Z,6.15
2023-04-05T07:46:08.125Z,6.10
2023-04-05T07:48:11.345Z,6.13
2023-04-05T07:50:15.871Z,5.90
2023-04-05T07:52:18.671Z,6.00
2023-04-05T07:54:21.448Z,5.53
2023-04-05T07:56:24.489Z,6.13
2023-04-05T07:58:30.456Z,5.83
2023-04-05T08:00:33.321Z,6.00
2023-04-05T08:02:36.391Z,5.40
2023-04-05T08:04:39.265Z,6.07
2023-04-05T08:06:43.437Z,5.23
2023-04-05T08:08:46.368Z,5.30
2023-04-05T08:10:49.147Z,5.60
2023-04-05T08:12:51.915Z,6.93
2023-04-05T08:14:54.750Z,7.30
2023-04-05T08:16:57.543Z,5.47
2023-04-05T08:19:00.317Z,6.20
2023-04-05T08:21:03.089Z,5.67
2023-04-05T08:23:07.818Z,5.97
2023-04-05T08:25:10.912Z,6.93
2023-04-05T08:27:13.709Z,5.20
2023-04-05T08:29:16.480Z,5.17
2023-04-05T08:31:19.348Z,4.57
2023-04-05T08:33:22.152Z,5.27
2023-04-05T08:35:25.005Z,5.30
2023-04-05T08:37:27.938Z,4.70
2023-04-05T08:39:34.152Z,5.07
2023-04-05T08:41:37.723Z,4.87
2023-04-05T08:43:45.974Z,3.90
2023-04-05T08:45:50.692Z,3.83
2023-04-05T08:47:54.067Z,3.67
2023-04-05T08:49:56.898Z,4.17
2023-04-05T08:52:00.539Z,3.87
2023-04-05T08:54:04.899Z,4.10
2023-04-05T08:56:09.400Z,3.27
2023-04-05T08:58:15.373Z,3.80
2023-04-05T09:00:18.448Z,4.43
2023-04-05T09:02:21.255Z,3.50
2023-04-05T09:04:24.557Z,4.17
2023-04-05T09:06:28.682Z,3.43
2023-04-05T09:08:31.534Z,5.07
2023-04-05T09:10:34.383Z,3.33
2023-04-05T09:12:38.582Z,4.07
2023-04-05T09:14:41.367Z,3.27
2023-04-05T09:16:44.220Z,3.70
2023-04-05T09:18:47.002Z,3.27
2023-04-05T09:20:49.759Z,3.50
2023-04-05T09:22:52.570Z,3.00
2023-04-05T09:24:55.334Z,3.10
2023-04-05T09:27:05.290Z,4.00
2023-04-05T09:29:09.410Z,3.90
2023-04-05T09:31:14.671Z,3.40
2023-04-05T09:33:19.819Z,2.67
2023-04-05T09:35:22.715Z,3.87
2023-04-05T09:37:25.565Z,3.23
2023-04-05T09:39:32.436Z,3.67
2023-04-05T09:41:35.534Z,3.73
2023-04-05T09:43:39.068Z,3.60
2023-04-05T09:45:46.010Z,3.70
2023-04-05T09:47:55.737Z,3.30
2023-04-05T09:49:58.650Z,3.50
2023-04-05T09:52:01.426Z,3.83
2023-04-05T09:54:05.424Z,3.50
2023-04-05T09:56:10.275Z,4.13
2023-04-05T09:58:13.970Z,3.40
2023-04-05T10:00:21.288Z,3.53
2023-04-05T10:02:25.741Z,3.87
2023-04-05T10:04:28.990Z,3.40
2023-04-05T10:06:38.676Z,3.37
2023-04-05T10:08:41.482Z,2.97
2023-04-05T10:10:47.953Z,3.13
2023-04-05T10:12:50.908Z,3.13
2023-04-05T10:14:53.753Z,3.27
2023-04-05T10:17:00.754Z,3.20
2023-04-05T10:19:06.065Z,3.70
2023-04-05T10:21:09.019Z,3.30
2023-04-05T10:23:14.297Z,3.30
2023-04-05T10:25:22.433Z,3.70
2023-04-05T10:27:30.500Z,3.50
2023-04-05T10:29:39.127Z,3.40
2023-04-05T10:31:47.378Z,3.67
2023-04-05T10:33:52.702Z,3.40
2023-04-05T10:36:02.207Z,3.20
2023-04-05T10:38:13.172Z,3.70
2023-04-05T10:40:16.067Z,3.80
2023-04-05T10:42:21.649Z,3.50
2023-04-05T10:44:26.800Z,4.20
2023-04-05T10:46:29.993Z,3.60
2023-04-05T10:48:37.946Z,3.33
2023-04-05T10:50:40.926Z,3.33
2023-04-05T10:52:45.225Z,4.57
2023-04-05T10:54:48.002Z,4.07
2023-04-05T10:56:50.779Z,3.57
2023-04-05T10:58:53.605Z,4.17
2023-04-05T11:00:56.530Z,4.27
2023-04-05T11:02:59.441Z,3.57
2023-04-05T11:05:04.934Z,3.13
2023-04-05T11:07:15.270Z,3.73
2023-04-05T11:09:20.618Z,4.00
2023-04-05T11:11:23.848Z,4.17
2023-04-05T11:13:48.362Z,3.40
2023-04-05T11:16:09.089Z,4.57
2023-04-05T11:18:12.513Z,3.90
2023-04-05T11:20:15.464Z,4.00
2023-04-05T11:22:26.408Z,3.77
2023-04-05T11:24:34.667Z,3.37
2023-04-05T11:26:56.688Z,3.83
2023-04-05T11:28:59.475Z,3.63
2023-04-05T11:31:13.791Z,3.37
2023-04-05T11:33:38.913Z,3.67
2023-04-05T11:35:41.731Z,3.83
2023-04-05T11:37:58.286Z,3.80
2023-04-05T11:40:26.782Z,4.30
2023-04-05T11:42:29.572Z,3.60
2023-04-05T11:44:41.428Z,3.63
2023-04-05T11:46:44.517Z,3.57
2023-04-05T11:48:50.383Z,4.00
2023-04-05T11:50:55.465Z,4.03
2023-04-05T11:53:15.111Z,4.43
2023-04-05T11:55:18.490Z,4.30
2023-04-05T11:57:23.374Z,4.40
2023-04-05T11:59:33.405Z,3.87
2023-04-05T12:01:36.368Z,4.23
2023-04-05T12:03:39.219Z,4.27
2023-04-05T12:05:49.684Z,4.07
2023-04-05T12:07:54.111Z,4.90
2023-04-05T12:10:05.009Z,4.17
2023-04-05T12:12:17.116Z,3.70
2023-04-05T12:14:21.262Z,4.50
2023-04-05T12:16:24.073Z,3.93
2023-04-05T12:18:28.083Z,4.37
2023-04-05T12:20:31.027Z,4.37
2023-04-05T12:22:33.811Z,4.37
2023-04-05T12:24:36.579Z,4.63
2023-04-05T12:26:39.466Z,4.30
2023-04-05T12:28:52.207Z,4.20
2023-04-05T12:30:58.038Z,4.53
2023-04-05T12:33:03.127Z,3.90
2023-04-05T12:35:11.949Z,4.47
2023-04-05T12:37:14.730Z,4.37
2023-04-05T12:39:18.122Z,4.23
2023-04-05T12:41:27.624Z,4.10
2023-04-05T12:43:39.520Z,3.73
2023-04-05T12:45:43.776Z,4.27
2023-04-05T12:47:52.301Z,3.67
2023-04-05T12:49:56.046Z,4.33
2023-04-05T12:52:01.919Z,3.87
2023-04-05T12:54:04.996Z,4.37
2023-04-05T12:56:09.434Z,4.33
2023-04-05T12:58:13.337Z,4.20
2023-04-05T13:00:16.956Z,4.20
2023-04-05T13:02:19.827Z,3.97
2023-04-05T13:04:24.258Z,4.10
2023-04-05T13:06:27.274Z,3.70
2023-04-05T13:08:30.593Z,3.80
2023-04-05T13:10:33.481Z,4.00
2023-04-05T13:12:36.289Z,4.43
2023-04-05T13:14:39.056Z,3.40
2023-04-05T13:16:41.812Z,3.80
2023-04-05T13:18:44.617Z,4.17
2023-04-05T13:20:48.725Z,3.87
2023-04-05T13:22:51.601Z,3.90
2023-04-05T13:24:54.352Z,3.63
2023-04-05T13:26:57.117Z,3.70
2023-04-05T13:28:59.891Z,3.83
2023-04-05T13:31:03.474Z,4.17
2023-04-05T13:33:06.433Z,3.80
2023-04-05T13:35:09.894Z,4.17
2023-04-05T13:37:14.027Z,3.60
2023-04-05T13:39:16.817Z,4.00
2023-04-05T13:41:19.604Z,4.13
2023-04-05T13:43:22.407Z,4.87
2023-04-05T13:45:25.616Z,3.37
2023-04-05T13:47:28.515Z,3.83
2023-04-05T13:49:31.402Z,3.87
2023-04-05T13:51:35.673Z,4.10
2023-04-05T13:53:39.811Z,3.83
2023-04-05T13:55:42.651Z,3.93
2023-04-05T13:57:45.716Z,4.30
2023-04-05T13:59:48.546Z,4.27
2023-04-05T14:01:51.427Z,3.80
2023-04-05T14:03:54.333Z,3.80
2023-04-05T14:05:57.683Z,4.20
2023-04-05T14:08:00.521Z,3.83
2023-04-05T14:10:06.131Z,3.90
2023-04-05T14:12:09.076Z,3.60
2023-04-05T14:14:11.995Z,3.70
2023-04-05T14:16:14.797Z,3.27
2023-04-05T14:18:17.628Z,3.60
2023-04-05T14:20:20.821Z,4.07
2023-04-05T14:22:23.603Z,4.00
2023-04-05T14:24:26.424Z,3.80
2023-04-05T14:26:30.562Z,3.50
2023-04-05T14:28:33.380Z,4.37
2023-04-05T14:30:36.490Z,3.93
2023-04-05T14:32:39.345Z,4.03
2023-04-05T14:34:42.164Z,3.67
2023-04-05T14:36:44.954Z,4.03
2023-04-05T14:38:47.837Z,3.90
2023-04-05T14:40:50.628Z,4.53
2023-04-05T14:42:54.959Z,4.20
2023-04-05T14:44:57.743Z,3.70
2023-04-05T14:47:00.668Z,4.63
2023-04-05T14:49:03.588Z,3.80
2023-04-05T14:51:06.698Z,4.50
2023-04-05T14:53:09.497Z,4.30
2023-04-05T14:55:13.453Z,3.53
2023-04-05T14:57:16.275Z,4.07
2023-04-05T14:59:20.482Z,4.37
2023-04-05T15:01:23.315Z,3.50
2023-04-05T15:03:26.294Z,3.80
2023-04-05T15:05:29.283Z,3.80
2023-04-05T15:07:32.171Z,3.60
2023-04-05T15:09:35.964Z,3.80
2023-04-05T15:11:39.334Z,4.10
2023-04-05T15:13:42.202Z,4.17
2023-04-05T15:15:46.641Z,4.50
2023-04-05T15:17:49.520Z,4.30
2023-04-05T15:19:52.460Z,4.50
2023-04-05T15:21:55.382Z,4.87
2023-04-05T15:23:58.173Z,4.63
2023-04-05T15:26:00.962Z,4.40
2023-04-05T15:28:06.705Z,4.30
2023-04-05T15:30:10.822Z,4.50
2023-04-05T15:32:14.948Z,4.80
2023-04-05T15:34:17.884Z,4.23
2023-04-05T15:36:20.664Z,3.73
2023-04-05T15:38:23.469Z,4.03
2023-04-05T15:40:26.235Z,4.73
2023-04-05T15:42:29.075Z,4.20
2023-04-05T15:44:31.854Z,4.33
2023-04-05T15:46:34.764Z,3.67
2023-04-05T15:48:38.942Z,4.20
2023-04-05T15:50:41.751Z,4.40
2023-04-05T15:52:44.519Z,4.00
2023-04-05T15:54:47.756Z,4.27
2023-04-05T15:56:50.669Z,5.20
2023-04-05T15:58:53.524Z,4.67
2023-04-05T16:00:56.318Z,3.80
2023-04-05T16:03:00.753Z,4.20
2023-04-05T16:05:05.446Z,4.43
2023-04-05T16:07:09.246Z,3.80
2023-04-05T16:09:12.056Z,4.10
2023-04-05T16:11:14.831Z,3.70
2023-04-05T16:13:17.609Z,4.40
2023-04-05T16:15:20.522Z,4.50
2023-04-05T16:17:25.381Z,4.60
2023-04-05T16:19:28.386Z,4.90
2023-04-05T16:21:32.670Z,4.03
2023-04-05T16:23:35.526Z,4.07
2023-04-05T16:25:38.289Z,4.17
2023-04-05T16:27:41.342Z,4.80
2023-04-05T16:29:44.163Z,4.10
2023-04-05T16:31:47.931Z,4.13
2023-04-05T16:33:50.910Z,4.30
2023-04-05T16:35:53.937Z,4.00
2023-04-05T16:37:58.519Z,4.70
2023-04-05T16:40:01.343Z,4.30
2023-04-05T16:42:04.438Z,4.87
2023-04-05T16:44:07.272Z,5.27
2023-04-05T16:46:10.056Z,4.07
2023-04-05T16:48:14.625Z,4.57
2023-04-05T16:50:17.591Z,4.90
2023-04-05T16:52:20.418Z,4.73
2023-04-05T16:54:24.564Z,4.77
2023-04-05T16:56:27.381Z,5.10
2023-04-05T16:58:30.640Z,4.90
2023-04-05T17:00:33.649Z,5.27
2023-04-05T17:02:36.469Z,4.90
2023-04-05T17:04:39.306Z,4.10
2023-04-05T17:06:42.422Z,4.50
2023-04-05T17:08:45.192Z,4.90
2023-04-05T17:10:49.307Z,4.10
2023-04-05T17:12:52.079Z,4.70
2023-04-05T17:14:54.863Z,4.60
2023-04-05T17:16:57.634Z,4.70
2023-04-05T17:19:00.643Z,4.70
2023-04-05T17:21:03.448Z,4.30
2023-04-05T17:23:06.250Z,4.30
2023-04-05T17:25:09.746Z,5.37
2023-04-05T17:27:13.896Z,4.57
2023-04-05T17:29:17.614Z,4.20
2023-04-05T17:31:20.505Z,4.50
2023-04-05T17:33:23.327Z,4.40
2023-04-05T17:35:26.138Z,4.43
2023-04-05T17:37:28.969Z,4.93
2023-04-05T17:39:31.761Z,4.17
2023-04-05T17:41:34.537Z,5.17
2023-04-05T17:43:38.655Z,4.93
2023-04-05T17:45:41.671Z,5.07
2023-04-05T17:47:44.580Z,4.47
2023-04-05T17:49:47.397Z,4.40
2023-04-05T17:51:50.215Z,4.40
2023-04-05T17:53:53.014Z,5.00
2023-04-05T17:55:56.743Z,5.10
2023-04-05T17:57:59.600Z,5.20
2023-04-05T18:00:04.177Z,4.90
2023-04-05T18:02:07.060Z,5.20
2023-04-05T18:04:12.405Z,5.80
2023-04-05T18:06:17.211Z,4.93
2023-04-05T18:08:20.005Z,5.13
2023-04-05T18:10:23.546Z,6.37
2023-04-05T18:12:26.414Z,8.80
2023-04-05T18:14:30.289Z,11.50
2023-04-05T18:16:34.498Z,11.53
2023-04-05T18:18:37.365Z,13.40
2023-04-05T18:20:40.454Z,9.70
2023-04-05T18:22:43.287Z,8.63
2023-04-05T18:24:46.132Z,9.37
2023-04-05T18:26:48.891Z,9.43
2023-04-05T18:28:57.714Z,6.80
2023-04-05T18:31:00.717Z,7.90
2023-04-05T18:33:05.001Z,7.53
2023-04-05T18:35:09.505Z,8.27
2023-04-05T18:37:12.330Z,10.00
2023-04-05T18:39:15.879Z,7.60
2023-04-05T18:41:18.711Z,6.23
2023-04-05T18:43:21.475Z,5.53
2023-04-05T18:45:24.256Z,6.17
2023-04-05T18:47:27.133Z,5.97
2023-04-05T18:49:31.339Z,5.77
2023-04-05T18:51:34.189Z,5.93
2023-04-05T18:53:36.937Z,7.50
2023-04-05T18:55:39.753Z,8.47
2023-04-05T18:57:42.875Z,8.17
2023-04-05T18:59:45.730Z,9.77
2023-04-05T19:01:49.058Z,9.90
2023-04-05T19:03:51.978Z,10.87
2023-04-05T19:05:56.088Z,10.10
2023-04-05T19:07:58.861Z,10.83
2023-04-05T19:10:01.653Z,13.07
2023-04-05T19:12:04.509Z,12.50
2023-04-05T19:14:07.267Z,10.80
2023-04-05T19:16:10.105Z,9.27
2023-04-05T19:18:12.911Z,9.47
2023-04-05T19:20:15.750Z,9.47
2023-04-05T19:22:19.889Z,8.80
2023-04-05T19:24:22.802Z,7.97
2023-04-05T19:26:25.678Z,6.90
2023-04-05T19:28:28.450Z,7.10
2023-04-05T19:30:31.248Z,6.83
2023-04-05T19:32:34.061Z,6.93
2023-04-05T19:34:37.855Z,6.67
2023-04-05T19:36:41.070Z,6.70
2023-04-05T19:38:45.216Z,7.27
2023-04-05T19:40:47.978Z,6.70
2023-04-05T19:42:50.742Z,7.80
2023-04-05T19:44:54.821Z,7.00
2023-04-05T19:46:57.574Z,7.23
2023-04-05T19:49:03.070Z,7.30
2023-04-05T19:51:07.098Z,7.30
2023-04-05T19:53:09.880Z,7.63
2023-04-05T19:55:29.636Z,7.40
2023-04-05T19:57:32.524Z,7.17
2023-04-05T19:59:35.522Z,6.97
2023-04-05T20:01:39.191Z,7.73
2023-04-05T20:03:42.377Z,6.90
2023-04-05T20:05:59.738Z,7.63
2023-04-05T20:08:02.512Z,7.27
2023-04-05T20:10:05.565Z,7.80
2023-04-05T20:12:12.466Z,8.30
2023-04-05T20:14:15.231Z,8.03
2023-04-05T20:16:18.425Z,8.27
2023-04-05T20:18:23.402Z,8.80
2023-04-05T20:20:26.188Z,8.97
2023-04-05T20:22:29.514Z,8.53
2023-04-05T20:24:32.256Z,9.00
2023-04-05T20:26:35.015Z,8.10
2023-04-05T20:28:39.942Z,6.90
2023-04-05T20:30:42.733Z,7.33
2023-04-05T20:32:45.583Z,9.00
2023-04-05T20:34:48.389Z,9.30
2023-04-05T20:36:51.802Z,8.97
2023-04-05T20:38:54.606Z,9.93
2023-04-05T20:40:58.621Z,9.30
2023-04-05T20:43:01.634Z,9.70
2023-04-05T20:45:06.699Z,6.90
2023-04-05T20:47:09.492Z,7.87
2023-04-05T20:49:12.606Z,9.13
2023-04-05T20:51:15.670Z,9.50
2023-04-05T20:53:18.440Z,8.70
2023-04-05T20:55:21.239Z,10.07
2023-04-05T20:57:23.997Z,11.00
2023-04-05T20:59:27.307Z,10.00
2023-04-05T21:01:31.618Z,10.90
2023-04-05T21:03:35.206Z,11.50
2023-04-05T21:05:38.020Z,11.37
2023-04-05T21:07:42.628Z,11.10
2023-04-05T21:09:45.385Z,11.60
2023-04-05T21:11:48.169Z,11.77
2023-04-05T21:13:50.937Z,11.80
2023-04-05T21:15:53.892Z,12.13
2023-04-05T21:18:00.457Z,12.03
2023-04-05T21:20:03.695Z,11.70
2023-04-05T21:22:06.576Z,11.63
2023-04-05T21:24:09.378Z,12.43
2023-04-05T21:26:12.183Z,10.63
2023-04-05T21:28:16.165Z,11.57
2023-04-05T21:30:19.075Z,13.13
2023-04-05T21:32:21.865Z,13.63
2023-04-05T21:34:26.359Z,13.17
2023-04-05T21:36:29.210Z,11.30
2023-04-05T21:38:31.986Z,11.77
2023-04-05T21:40:34.766Z,12.83
2023-04-05T21:42:37.543Z,12.77
2023-04-05T21:44:40.302Z,13.03
2023-04-05T21:46:43.239Z,12.07
2023-04-05T21:48:46.123Z,12.23
2023-04-05T21:50:50.238Z,12.33
2023-04-05T21:52:53.012Z,11.80
2023-04-05T21:54:55.797Z,12.60
2023-04-05T21:56:58.683Z,12.13
2023-04-05T21:59:01.525Z,12.83
2023-04-05T22:01:04.710Z,13.63
2023-04-05T22:03:07.525Z,12.80
2023-04-05T22:05:11.149Z,13.03
2023-04-05T22:07:15.306Z,12.80
2023-04-05T22:09:18.221Z,13.10
2023-04-05T22:11:21.178Z,11.30
2023-04-05T22:13:23.966Z,12.40
2023-04-05T22:15:26.734Z,13.20
2023-04-05T22:17:29.616Z,11.80
2023-04-05T22:19:32.402Z,12.30
2023-04-05T22:21:35.521Z,12.10
2023-04-05T22:23:41.741Z,12.57
2023-04-05T22:25:45.553Z,11.30
2023-04-05T22:27:48.341Z,11.30
2023-04-05T22:29:52.767Z,10.27
2023-04-05T22:31:55.612Z,9.30
2023-04-05T22:33:58.394Z,8.53
2023-04-05T22:36:01.323Z,9.27
2023-04-05T22:38:04.102Z,9.30
2023-04-05T22:40:09.488Z,8.33
2023-04-05T22:42:12.281Z,10.10
2023-04-05T22:44:15.050Z,10.00
2023-04-05T22:46:18.484Z,10.70
2023-04-05T22:48:21.376Z,9.60
2023-04-05T22:50:24.149Z,10.30
2023-04-05T22:52:26.945Z,10.00
2023-04-05T22:54:29.713Z,11.87
2023-04-05T22:56:33.885Z,12.00
2023-04-05T22:58:36.761Z,12.90
2023-04-05T23:00:39.514Z,13.47
2023-04-05T23:02:42.382Z,11.47
2023-04-05T23:04:45.166Z,11.80
2023-04-05T23:06:47.969Z,12.80
2023-04-05T23:08:50.834Z,11.47
2023-04-05T23:10:53.630Z,13.27
2023-04-05T23:12:57.713Z,11.67
2023-04-05T23:15:00.547Z,12.67
2023-04-05T23:17:04.913Z,12.60
2023-04-05T23:19:07.989Z,12.83
2023-04-05T23:21:11.201Z,13.30
2023-04-05T23:23:14.391Z,11.93
2023-04-05T23:25:17.297Z,12.53
2023-04-05T23:27:20.078Z,11.90
2023-04-05T23:29:26.102Z,11.13
2023-04-05T23:31:28.930Z,11.10
2023-04-05T23:33:31.703Z,10.83
2023-04-05T23:35:34.490Z,10.93
2023-04-05T23:37:37.294Z,10.30
2023-04-05T23:39:40.061Z,10.07
2023-04-05T23:41:42.834Z,11.07
2023-04-05T23:43:46.016Z,10.37
2023-04-05T23:45:50.274Z,10.77
2023-04-05T23:47:54.420Z,10.53
2023-04-05T23:49:57.188Z,10.23
2023-04-05T23:51:59.948Z,11.73
2023-04-05T23:54:02.713Z,12.83
2023-04-05T23:56:06.156Z,12.70
2023-04-05T23:58:09.006Z,12.03
